»·PEaware :: AAL522 KSLC-KBFI

AAL522 :: KSLC-KBFI

FLIGHT INFORMATION

Flight Status: Arrived
Operator:
American Airlines
More flights by this operator :: More flights under this callsign
Pilot: Anonymous 15267 (15267)
Aircraft: AIRBUS A320
(A320)
More flights by this aircraft type
Origin: KSLC Salt Lake City Intl
United States
Destination: KBFI Boeing Field/King Co Intl
United States
More flights between these airports :: More routes between these airports
Route: +TWF4 TWF J15 BOI PDT CHINS2
File this flight plan on PilotEdge
Remarks: / L
Altitude:
(Current/Filed)
36,000ft
Speed:
(Current/Filed)
170kts
Departed: 12-Dec-17 10:57 AM
Arrived: 12-Dec-17 12:45 PM
Distance/Time
Traveled:
601nm/1:48
Distance/Time
To Go:
Arrived

Flight Plot

Page will automatically refresh every two minutes.

Flight plan parsing failed; only flown route is shown


Map Options




Map Legend


Flown Route
Filed Route
Departure Airport
Arrival Airport
Navaid (VOR, NDB)
Fix

Horizontal Profiles

Position Reports

Time Latitude Longitude Heading Altitude Ground
Speed
12-Dec-17 10:16 40.788680 -111.979217 101 4236ft 0kts
12-Dec-17 10:17 40.788680 -111.979217 101 4236ft 0kts
12-Dec-17 10:18 40.788680 -111.979217 101 4236ft 0kts
12-Dec-17 10:19 40.788680 -111.979217 101 4236ft 0kts
12-Dec-17 10:20 40.788680 -111.979217 101 4236ft 0kts
12-Dec-17 10:21 40.788680 -111.979217 101 4236ft 0kts
12-Dec-17 10:22 40.788680 -111.979217 101 4236ft 0kts
12-Dec-17 10:23 40.788680 -111.979217 101 4236ft 0kts
12-Dec-17 10:24 40.788680 -111.979217 101 4236ft 0kts
12-Dec-17 10:25 40.788680 -111.979217 101 4236ft 0kts
12-Dec-17 10:26 40.788680 -111.979217 101 4236ft 0kts
12-Dec-17 10:27 40.788680 -111.979217 101 4236ft 0kts
12-Dec-17 10:28 40.788680 -111.979217 101 4236ft 0kts
12-Dec-17 10:29 40.788680 -111.979217 101 4236ft 0kts
12-Dec-17 10:30 40.788680 -111.979217 101 4236ft 0kts
12-Dec-17 10:31 40.788680 -111.979217 101 4236ft 0kts
12-Dec-17 10:32 40.788680 -111.979217 101 4236ft 0kts
12-Dec-17 10:33 40.788680 -111.979217 101 4236ft 0kts
12-Dec-17 10:34 40.788680 -111.979217 101 4236ft 0kts
12-Dec-17 10:35 40.788680 -111.979217 101 4236ft 0kts
12-Dec-17 10:36 40.788680 -111.979217 101 4236ft 0kts
12-Dec-17 10:37 40.788680 -111.979217 101 4236ft 0kts
12-Dec-17 10:38 40.788680 -111.979217 101 4236ft 0kts
12-Dec-17 10:39 40.788680 -111.979217 101 4236ft 0kts
12-Dec-17 10:40 40.788680 -111.979217 101 4236ft 0kts
12-Dec-17 10:41 40.788680 -111.979217 101 4236ft 0kts
12-Dec-17 10:42 40.788680 -111.979217 101 4236ft 0kts
12-Dec-17 10:43 40.788680 -111.979217 101 4236ft 0kts
12-Dec-17 10:44 40.788680 -111.979217 101 4236ft 0kts
12-Dec-17 10:45 40.788680 -111.979217 101 4236ft 0kts
12-Dec-17 10:46 40.788680 -111.979217 101 4236ft 0kts
12-Dec-17 10:47 40.788680 -111.979217 101 4236ft 0kts
12-Dec-17 10:48 40.788680 -111.979217 101 4236ft 0kts
12-Dec-17 10:49 40.788697 -111.979331 101 4236ft 2kts
12-Dec-17 10:51 40.788446 -111.979905 19 4236ft 0kts
12-Dec-17 10:52 40.789628 -111.979432 75 4236ft 7kts
12-Dec-17 10:53 40.789723 -111.978247 84 4236ft 0kts
12-Dec-17 10:54 40.789723 -111.978247 84 4236ft 0kts
12-Dec-17 10:55 40.789723 -111.978247 84 4236ft 0kts
12-Dec-17 10:56 40.789723 -111.978247 84 4236ft 0kts
12-Dec-17 10:57 40.789771 -111.977514 77 4236ft 8kts
12-Dec-17 10:58 40.794148 -111.977567 355 4236ft 24kts
12-Dec-17 10:59 40.800710 -111.978366 354 4236ft 21kts
12-Dec-17 11:00 40.806128 -111.978531 356 4236ft 1kts
12-Dec-17 11:01 40.806842 -111.978575 1 4236ft 3kts
12-Dec-17 11:02 40.807470 -111.978029 81 4236ft 8kts
12-Dec-17 11:03 40.802217 -111.976333 173 4236ft 97kts
12-Dec-17 11:04 40.762366 -111.984849 244 5683ft 177kts
12-Dec-17 11:05 40.749003 -112.060226 280 7269ft 246kts
12-Dec-17 11:06 40.775649 -112.143359 294 9269ft 253kts
12-Dec-17 11:07 40.804518 -112.229201 294 9876ft 259kts
12-Dec-17 11:08 40.832541 -112.312667 294 9965ft 261kts
12-Dec-17 11:09 40.903796 -112.360994 343 10756ft 330kts
12-Dec-17 11:10 40.991859 -112.396877 343 13337ft 333kts
12-Dec-17 11:11 41.081169 -112.436137 335 15203ft 353kts
12-Dec-17 11:12 41.163326 -112.504507 327 16785ft 373kts
12-Dec-17 11:13 41.247247 -112.588616 322 18453ft 386kts
12-Dec-17 11:14 41.323561 -112.686384 310 20181ft 388kts
12-Dec-17 11:15 41.395511 -112.791666 310 21952ft 387kts
12-Dec-17 11:16 41.466143 -112.898954 310 23474ft 389kts
12-Dec-17 11:17 41.537333 -113.007993 310 24692ft 397kts
12-Dec-17 11:18 41.609615 -113.119043 310 25851ft 402kts
12-Dec-17 11:19 41.683162 -113.232449 309 26889ft 409kts
12-Dec-17 11:20 41.757668 -113.347776 309 27865ft 414kts
12-Dec-17 11:21 41.836115 -113.460374 318 28712ft 422kts
12-Dec-17 11:22 41.919402 -113.571282 311 29534ft 425kts
12-Dec-17 11:23 41.998455 -113.688916 310 30279ft 430kts
12-Dec-17 11:24 42.077814 -113.808882 310 31188ft 430kts
12-Dec-17 11:25 42.155534 -113.926974 310 31844ft 434kts
12-Dec-17 11:26 42.235646 -114.049224 311 32441ft 438kts
12-Dec-17 11:27 42.315742 -114.171977 311 33168ft 437kts
12-Dec-17 11:28 42.395831 -114.295225 311 33807ft 437kts
12-Dec-17 11:29 42.475354 -114.418114 311 34421ft 436kts
12-Dec-17 11:30 42.541430 -114.553480 291 34948ft 437kts
12-Dec-17 11:31 42.607822 -114.687180 310 35462ft 435kts
12-Dec-17 11:32 42.686943 -114.810396 310 35983ft 434kts
12-Dec-17 11:33 42.766118 -114.934082 310 36431ft 434kts
12-Dec-17 11:34 42.845135 -115.058012 310 36675ft 434kts
12-Dec-17 11:35 42.923602 -115.181607 310 36675ft 433kts
12-Dec-17 11:36 43.002181 -115.305902 310 36734ft 433kts
12-Dec-17 11:37 43.080624 -115.430516 310 36736ft 433kts
12-Dec-17 11:38 43.156980 -115.552329 310 36734ft 432kts
12-Dec-17 11:39 43.234149 -115.675961 309 36730ft 432kts
12-Dec-17 11:40 43.311860 -115.800992 309 36729ft 432kts
12-Dec-17 11:41 43.389293 -115.926120 309 36727ft 431kts
12-Dec-17 11:42 43.466689 -116.051716 309 36723ft 430kts
12-Dec-17 11:43 43.543781 -116.177071 311 36723ft 430kts
12-Dec-17 11:44 43.631578 -116.288002 318 36727ft 430kts
12-Dec-17 11:45 43.720808 -116.397120 318 36725ft 429kts
12-Dec-17 11:46 43.809337 -116.505793 318 36755ft 429kts
12-Dec-17 11:47 43.898130 -116.615239 318 36787ft 429kts
12-Dec-17 11:48 43.985668 -116.723585 317 36812ft 429kts
12-Dec-17 11:49 44.074359 -116.833814 317 36814ft 428kts
12-Dec-17 11:50 44.161260 -116.942264 317 36814ft 428kts
12-Dec-17 11:51 44.249298 -117.052605 318 36870ft 424kts
12-Dec-17 11:52 44.336008 -117.161742 319 36833ft 418kts
12-Dec-17 11:53 44.421350 -117.269577 319 36746ft 415kts
12-Dec-17 11:54 44.506381 -117.377470 319 36645ft 413kts
12-Dec-17 11:55 44.591378 -117.485757 319 36657ft 414kts
12-Dec-17 11:56 44.676411 -117.594544 319 36690ft 415kts
12-Dec-17 11:57 44.761136 -117.703393 318 36711ft 417kts
12-Dec-17 11:58 44.846307 -117.813271 318 36720ft 417kts
12-Dec-17 11:59 44.931508 -117.923655 318 36717ft 417kts
12-Dec-17 12:00 45.016125 -118.033740 317 36743ft 415kts
12-Dec-17 12:01 45.099481 -118.142657 316 36703ft 410kts
12-Dec-17 12:02 45.181379 -118.250076 316 36655ft 408kts
12-Dec-17 12:03 45.263588 -118.358356 316 36644ft 407kts
12-Dec-17 12:04 45.345996 -118.467353 316 36652ft 407kts
12-Dec-17 12:05 45.427619 -118.575757 316 36658ft 409kts
12-Dec-17 12:06 45.506428 -118.680868 316 36692ft 409kts
12-Dec-17 12:07 45.588883 -118.791290 316 36691ft 409kts
12-Dec-17 12:08 45.670335 -118.900828 316 36682ft 409kts
12-Dec-17 12:09 45.746252 -119.019245 310 36685ft 408kts
12-Dec-17 12:10 45.818757 -119.141758 310 36756ft 408kts
12-Dec-17 12:11 45.890987 -119.264350 310 36754ft 408kts
12-Dec-17 12:12 45.963315 -119.387654 310 36752ft 408kts
12-Dec-17 12:13 46.035555 -119.511360 310 36782ft 408kts
12-Dec-17 12:14 46.106001 -119.632525 310 36784ft 408kts
12-Dec-17 12:15 46.176613 -119.754509 309 36793ft 409kts
12-Dec-17 12:16 46.248729 -119.879651 309 36627ft 403kts
12-Dec-17 12:17 46.318586 -120.001491 309 34955ft 390kts
12-Dec-17 12:18 46.386242 -120.119936 309 33093ft 380kts
12-Dec-17 12:18 46.441482 -120.217019 309 31514ft 373kts
12-Dec-17 12:20 46.517222 -120.350692 308 29314ft 364kts
12-Dec-17 12:20 46.569403 -120.443691 306 27870ft 354kts
12-Dec-17 12:22 46.633334 -120.576522 303 25833ft 341kts
12-Dec-17 12:22 46.672335 -120.658315 301 24692ft 335kts
12-Dec-17 12:24 46.728734 -120.777024 301 23089ft 326kts
12-Dec-17 12:24 46.771235 -120.866824 300 21596ft 321kts
12-Dec-17 12:25 46.822256 -120.974976 300 19379ft 326kts
12-Dec-17 12:26 46.871813 -121.080520 299 17801ft 313kts
12-Dec-17 12:27 46.921811 -121.187325 301 15153ft 328kts
12-Dec-17 12:28 46.973385 -121.297952 301 12445ft 338kts
12-Dec-17 12:29 47.025084 -121.409390 304 10946ft 311kts
12-Dec-17 12:30 47.071792 -121.510477 305 10960ft 304kts
12-Dec-17 12:31 47.117011 -121.608604 307 10951ft 289kts
12-Dec-17 12:32 47.158734 -121.699598 305 10951ft 266kts
12-Dec-17 12:33 47.199756 -121.789140 302 10948ft 268kts
12-Dec-17 12:34 47.243135 -121.884094 302 10196ft 280kts
12-Dec-17 12:35 47.284601 -121.975357 299 9054ft 265kts
12-Dec-17 12:36 47.335149 -122.052547 344 8027ft 282kts
12-Dec-17 12:37 47.408583 -122.077130 346 7327ft 262kts
12-Dec-17 12:38 47.476810 -122.100276 347 6586ft 242kts
12-Dec-17 12:39 47.538786 -122.122193 347 5779ft 215kts
12-Dec-17 12:40 47.596269 -122.141407 348 4404ft 213kts
12-Dec-17 12:41 47.640309 -122.192063 310 3456ft 208kts
12-Dec-17 12:42 47.679162 -122.256218 304 2968ft 225kts
12-Dec-17 12:43 47.704718 -122.330412 278 2868ft 178kts
12-Dec-17 12:44 47.690179 -122.392278 229 2534ft 163kts
12-Dec-17 12:45 47.656295 -122.437008 195 2541ft 156kts
12-Dec-17 12:46 47.624215 -122.399614 130 2121ft 148kts
12-Dec-17 12:47 47.596755 -122.357483 151 1285ft 137kts
12-Dec-17 12:48 47.563426 -122.330648 150 571ft 134kts
12-Dec-17 12:49 47.531992 -122.304122 151 22ft 79kts
12-Dec-17 12:50 47.526710 -122.301155 322 20ft 12kts
12-Dec-17 12:51 47.530425 -122.304312 331 19ft 18kts
12-Dec-17 12:52 47.535547 -122.308627 331 20ft 24kts
12-Dec-17 12:53 47.539600 -122.313068 240 22ft 13kts
12-Dec-17 12:54 47.537970 -122.313138 150 19ft 0kts

Navigation Log

Ident Type
Flight plan parsing failed, navigation log unavailable